MacClesfield, North Carolina
Current Conditions -  °F | °C
As of 8:53 AM on Tuesday 21 Oct 2014 (Local Time) from KRWI Reporting Station
Few Clouds Few Clouds  
Wind Chill: 59°   Ceiling: Unl
Heat Index: 59°   Visibility: 10mi
Dew Point: 56°   Wind: 3mph
Humidity: 90%   Direction: 210°SSW
Pressure: 29.94"   Gusts: NA
Location:  35.75°N, 77.67°W
Report Text: KRWI 211253Z AUTO 21003KT 10SM FEW110 15/13 A2994 RMK AO2 SLP136 T01500133
Loading
Personal Weather Stations






























Interactive Weather Map
Tropical Storm Tracking
New forecast layout! Learn more

10-Day Weather Forecast

Advertisements
Track Severe Weather on mobile